Time;durP1;ratioP1;P1;durP2;ratioP2;P2;SDS_P1;SDS_P2;PMS_P1;PMS_P2;Temp;Humidity;BMP_temperature;BMP_pressure;BME280_temperature;BME280_humidity;BME280_pressure;Samples;Min_cycle;Max_cycle;Signal;HPM_P1;HPM_P2
2023/11/04 00:00:25;;;;;;;30.77;3.35;;;;;;;;;;5012920;28;20370;-37
2023/11/04 00:02:52;;;;;;;18.27;2.60;;;;;;;;;;5013182;28;20113;-37
2023/11/04 00:05:19;;;;;;;30.55;3.25;;;;;;;;;;5013342;28;20022;-37
2023/11/04 00:07:46;;;;;;;30.17;3.08;;;;;;;;;;5013527;28;20028;-37
2023/11/04 00:10:14;;;;;;;19.80;2.60;;;;;;;;;;5013121;28;20539;-37
2023/11/04 00:12:41;;;;;;;27.45;3.72;;;;;;;;;;5013381;28;20033;-37
2023/11/04 00:15:08;;;;;;;24.20;3.03;;;;;;;;;;5013312;28;20485;-37
2023/11/04 00:17:35;;;;;;;34.88;3.55;;;;;;;;;;5012022;28;20026;-39
2023/11/04 00:20:02;;;;;;;30.63;2.80;;;;;;;;;;4994704;28;20033;-37
2023/11/04 00:22:29;;;;;;;37.42;3.63;;;;;;;;;;5011655;28;20083;-39
2023/11/04 00:24:56;;;;;;;33.05;3.88;;;;;;;;;;5011438;28;20499;-39
2023/11/04 00:27:23;;;;;;;39.25;3.90;;;;;;;;;;5010933;28;20099;-40
2023/11/04 00:29:50;;;;;;;32.15;3.75;;;;;;;;;;5011336;28;20033;-37
2023/11/04 00:32:17;;;;;;;35.08;3.97;;;;;;;;;;5010408;28;20120;-37
2023/11/04 00:34:44;;;;;;;38.05;4.80;;;;;;;;;;5011941;28;20503;-39
2023/11/04 00:37:11;;;;;;;36.58;5.20;;;;;;;;;;5011680;28;20037;-37
2023/11/04 00:39:38;;;;;;;50.75;6.05;;;;;;;;;;5012346;28;20108;-39
2023/11/04 00:42:05;;;;;;;57.33;7.35;;;;;;;;;;5009862;28;20485;-38
2023/11/04 00:44:33;;;;;;;51.88;7.95;;;;;;;;;;5011691;28;20029;-38
2023/11/04 00:47:00;;;;;;;69.93;7.32;;;;;;;;;;4994127;28;20032;-38
2023/11/04 00:49:27;;;;;;;46.83;7.18;;;;;;;;;;5011899;28;20392;-37
2023/11/04 00:51:54;;;;;;;46.97;6.68;;;;;;;;;;5012294;28;20496;-43
2023/11/04 00:54:21;;;;;;;39.40;6.78;;;;;;;;;;5012004;28;20068;-39
2023/11/04 00:56:48;;;;;;;54.00;7.47;;;;;;;;;;5011939;28;20033;-39
2023/11/04 00:59:15;;;;;;;48.17;6.88;;;;;;;;;;5011996;28;20092;-39
2023/11/04 01:01:43;;;;;;;46.45;6.78;;;;;;;;;;5011804;28;20025;-39
2023/11/04 01:04:10;;;;;;;42.20;7.65;;;;;;;;;;4994074;28;20041;-36
2023/11/04 01:06:37;;;;;;;44.08;8.70;;;;;;;;;;5011929;28;20030;-39
2023/11/04 01:09:05;;;;;;;58.75;8.32;;;;;;;;;;5010927;28;20026;-39
2023/11/04 01:11:32;;;;;;;54.63;8.25;;;;;;;;;;5011688;28;20033;-35
2023/11/04 01:13:59;;;;;;;56.88;8.50;;;;;;;;;;5011711;28;20040;-38
2023/11/04 01:16:26;;;;;;;45.53;7.25;;;;;;;;;;5011670;28;20555;-37
2023/11/04 01:18:53;;;;;;;52.42;8.10;;;;;;;;;;5011832;28;20026;-36
2023/11/04 01:21:20;;;;;;;44.83;7.47;;;;;;;;;;5011269;28;20121;-38
2023/11/04 01:23:48;;;;;;;38.65;7.50;;;;;;;;;;5011827;28;20038;-37
2023/11/04 01:26:15;;;;;;;43.42;7.47;;;;;;;;;;5011260;28;20022;-37
2023/11/04 01:28:42;;;;;;;51.50;8.60;;;;;;;;;;5008616;28;20058;-39
2023/11/04 01:31:09;;;;;;;45.42;9.02;;;;;;;;;;5009700;28;20186;-39
2023/11/04 01:33:36;;;;;;;46.60;9.40;;;;;;;;;;5010940;28;20026;-39
2023/11/04 01:36:04;;;;;;;49.55;9.85;;;;;;;;;;5011071;28;20041;-39
2023/11/04 01:38:31;;;;;;;53.10;8.98;;;;;;;;;;5011059;28;20105;-38
2023/11/04 01:40:58;;;;;;;50.40;9.65;;;;;;;;;;5011208;28;20079;-43
2023/11/04 01:43:29;;;;;;;50.45;9.10;;;;;;;;;;5011307;28;20030;-39
2023/11/04 01:46:16;;;;;;;49.25;10.30;;;;;;;;;;5011379;28;20022;-40
2023/11/04 01:48:43;;;;;;;47.92;9.68;;;;;;;;;;4994558;28;20042;-37
2023/11/04 01:51:12;;;;;;;53.80;10.95;;;;;;;;;;5007515;28;20058;-37
2023/11/04 01:53:40;;;;;;;41.55;10.07;;;;;;;;;;5011418;28;20037;-39
2023/11/04 01:56:08;;;;;;;45.30;10.95;;;;;;;;;;5011101;28;20396;-39
2023/11/04 01:58:36;;;;;;;43.40;9.98;;;;;;;;;;5011243;28;20111;-39
2023/11/04 02:01:04;;;;;;;45.50;11.35;;;;;;;;;;5011201;28;20026;-37
2023/11/04 02:03:31;;;;;;;46.50;10.65;;;;;;;;;;5011136;28;20037;-40
2023/11/04 02:05:58;;;;;;;53.83;12.23;;;;;;;;;;5011158;28;20112;-38
2023/11/04 02:08:25;;;;;;;47.55;11.10;;;;;;;;;;5010345;28;20036;-39
2023/11/04 02:10:52;;;;;;;42.67;11.27;;;;;;;;;;5008322;28;20447;-39
2023/11/04 02:13:19;;;;;;;50.30;11.15;;;;;;;;;;4993347;28;20030;-38
2023/11/04 02:15:46;;;;;;;45.08;11.32;;;;;;;;;;5010597;28;20121;-38
2023/11/04 02:18:13;;;;;;;53.25;11.65;;;;;;;;;;5010288;28;20476;-39
2023/11/04 02:20:43;;;;;;;44.47;10.90;;;;;;;;;;5011066;28;20026;-39
2023/11/04 02:23:10;;;;;;;49.78;11.05;;;;;;;;;;5009692;28;20037;-39
2023/11/04 02:25:37;;;;;;;44.95;10.70;;;;;;;;;;5002023;28;20026;-37
2023/11/04 02:28:05;;;;;;;43.92;10.50;;;;;;;;;;5010467;28;20057;-37
2023/11/04 02:30:32;;;;;;;42.92;10.18;;;;;;;;;;5010828;28;20026;-39
2023/11/04 02:32:59;;;;;;;44.70;10.23;;;;;;;;;;5009294;28;20030;-42
2023/11/04 02:35:26;;;;;;;37.42;10.27;;;;;;;;;;4992508;28;20077;-39
2023/11/04 02:37:54;;;;;;;37.90;9.52;;;;;;;;;;5010744;28;20065;-40
2023/11/04 02:40:21;;;;;;;39.05;9.73;;;;;;;;;;5011035;28;20061;-41
2023/11/04 02:42:49;;;;;;;67.70;10.50;;;;;;;;;;5005114;28;20488;-41
2023/11/04 02:45:16;;;;;;;41.40;10.13;;;;;;;;;;5014108;28;20018;-39
2023/11/04 02:47:43;;;;;;;33.28;8.73;;;;;;;;;;5013916;28;20041;-40
2023/11/04 02:50:13;;;;;;;31.60;9.18;;;;;;;;;;5013921;28;20088;-38
2023/11/04 02:52:42;;;;;;;35.47;9.75;;;;;;;;;;5014375;28;20030;-37
2023/11/04 02:55:09;;;;;;;31.33;8.60;;;;;;;;;;5014150;28;20758;-39
2023/11/04 02:57:36;;;;;;;29.75;8.45;;;;;;;;;;5014158;28;20056;-39
2023/11/04 03:00:08;;;;;;;29.85;9.13;;;;;;;;;;5014323;28;20034;-38
2023/11/04 03:02:36;;;;;;;35.60;9.50;;;;;;;;;;5014427;28;20424;-37
2023/11/04 03:05:04;;;;;;;25.95;8.68;;;;;;;;;;5014665;28;20026;-37
2023/11/04 03:07:31;;;;;;;31.70;8.68;;;;;;;;;;5014436;28;20026;-36
2023/11/04 03:09:58;;;;;;;25.38;8.50;;;;;;;;;;5013937;28;20038;-37
2023/11/04 03:12:25;;;;;;;37.88;9.32;;;;;;;;;;5014023;28;20373;-38
2023/11/04 03:14:53;;;;;;;26.08;8.57;;;;;;;;;;5013905;28;20451;-37
2023/11/04 03:17:19;;;;;;;28.25;8.18;;;;;;;;;;4995935;28;20487;-37
2023/11/04 03:19:46;;;;;;;26.35;7.82;;;;;;;;;;5014043;28;20033;-38
2023/11/04 03:22:14;;;;;;;25.77;7.90;;;;;;;;;;5013497;28;20030;-37
2023/11/04 03:24:47;;;;;;;24.65;7.45;;;;;;;;;;5014013;28;20029;-37
2023/11/04 03:27:15;;;;;;;27.15;7.78;;;;;;;;;;5013306;28;20129;-38
2023/11/04 03:29:42;;;;;;;25.48;8.43;;;;;;;;;;5013505;28;20041;-38
2023/11/04 03:32:09;;;;;;;22.88;7.22;;;;;;;;;;4995575;28;20447;-38
2023/11/04 03:34:36;;;;;;;25.88;8.00;;;;;;;;;;5013167;28;20582;-38
2023/11/04 03:37:04;;;;;;;27.15;7.80;;;;;;;;;;5013645;28;20056;-39
2023/11/04 03:39:32;;;;;;;27.42;7.90;;;;;;;;;;5012944;28;20164;-39
2023/11/04 03:42:00;;;;;;;22.00;7.20;;;;;;;;;;5013643;28;20026;-38
2023/11/04 03:44:27;;;;;;;23.52;6.93;;;;;;;;;;5013270;28;20034;-37
2023/11/04 03:46:57;;;;;;;29.20;7.18;;;;;;;;;;5013658;28;20095;-38
2023/11/04 03:49:24;;;;;;;22.55;7.32;;;;;;;;;;5013227;28;20030;-38
2023/11/04 03:51:51;;;;;;;24.00;7.30;;;;;;;;;;5012755;28;20033;-39
2023/11/04 03:54:18;;;;;;;21.88;7.13;;;;;;;;;;4995125;28;20036;-38
2023/11/04 03:56:45;;;;;;;23.33;6.90;;;;;;;;;;5013300;28;20037;-38
2023/11/04 03:59:12;;;;;;;22.42;8.25;;;;;;;;;;4995289;28;20029;-39
2023/11/04 04:01:42;;;;;;;21.80;6.85;;;;;;;;;;5013254;28;20021;-38
2023/11/04 04:04:09;;;;;;;26.40;7.60;;;;;;;;;;5013371;28;20030;-38
2023/11/04 04:06:36;;;;;;;20.83;6.50;;;;;;;;;;5012628;28;20072;-38
2023/11/04 04:09:03;;;;;;;19.45;6.35;;;;;;;;;;5012835;28;20023;-37
2023/11/04 04:11:30;;;;;;;19.52;5.97;;;;;;;;;;5012494;28;20038;-38
2023/11/04 04:13:58;;;;;;;17.33;6.47;;;;;;;;;;5013096;28;20112;-38
2023/11/04 04:16:25;;;;;;;17.70;6.38;;;;;;;;;;5012750;28;20045;-38
2023/11/04 04:18:53;;;;;;;19.63;6.72;;;;;;;;;;5013174;28;20022;-36
2023/11/04 04:21:20;;;;;;;17.77;5.78;;;;;;;;;;5012782;28;20042;-36
2023/11/04 04:23:48;;;;;;;17.98;6.45;;;;;;;;;;5012557;28;20032;-38
2023/11/04 04:26:19;;;;;;;20.60;6.85;;;;;;;;;;5012557;28;20029;-37
2023/11/04 04:28:46;;;;;;;17.92;6.40;;;;;;;;;;5012933;28;20069;-36
2023/11/04 04:31:14;;;;;;;17.17;6.15;;;;;;;;;;5012985;28;20022;-36
2023/11/04 04:33:41;;;;;;;16.00;5.90;;;;;;;;;;5012809;28;20025;-36
2023/11/04 04:36:09;;;;;;;20.17;6.18;;;;;;;;;;5012936;28;20038;-36
2023/11/04 04:38:36;;;;;;;18.15;6.20;;;;;;;;;;5012945;28;20025;-36
2023/11/04 04:41:03;;;;;;;16.13;5.93;;;;;;;;;;5012882;28;20049;-37
2023/11/04 04:43:30;;;;;;;17.48;5.85;;;;;;;;;;5012606;28;20523;-36
2023/11/04 04:45:57;;;;;;;15.20;5.63;;;;;;;;;;5012063;28;20125;-36
2023/11/04 04:48:24;;;;;;;13.18;5.40;;;;;;;;;;5012240;28;20033;-36
2023/11/04 04:50:51;;;;;;;15.05;5.90;;;;;;;;;;5012108;28;20392;-36
2023/11/04 04:53:18;;;;;;;13.25;5.32;;;;;;;;;;5011993;28;20061;-37
2023/11/04 04:55:45;;;;;;;17.83;5.95;;;;;;;;;;5012170;28;20104;-37
2023/11/04 04:58:12;;;;;;;19.75;6.00;;;;;;;;;;5012111;28;20053;-37
2023/11/04 05:00:40;;;;;;;15.10;5.82;;;;;;;;;;5011856;28;20026;-37
2023/11/04 05:03:07;;;;;;;12.98;5.40;;;;;;;;;;5011753;28;20033;-37
2023/11/04 05:05:34;;;;;;;15.63;6.20;;;;;;;;;;5009442;28;20048;-36
2023/11/04 05:08:00;;;;;;;22.55;6.32;;;;;;;;;;5012547;28;20033;-36
2023/11/04 05:10:28;;;;;;;14.88;5.38;;;;;;;;;;5012369;28;20022;-37
2023/11/04 05:12:55;;;;;;;13.77;5.22;;;;;;;;;;5012315;28;20080;-37
2023/11/04 05:15:22;;;;;;;11.95;5.15;;;;;;;;;;5012311;28;20034;-37
2023/11/04 05:17:49;;;;;;;13.45;5.07;;;;;;;;;;5012252;28;20026;-36
2023/11/04 05:20:16;;;;;;;17.35;5.47;;;;;;;;;;5012102;28;20029;-42
2023/11/04 05:22:43;;;;;;;12.77;5.00;;;;;;;;;;5012307;28;20492;-38
2023/11/04 05:25:10;;;;;;;14.32;5.60;;;;;;;;;;5012189;28;20030;-37
2023/11/04 05:27:36;;;;;;;13.68;4.55;;;;;;;;;;4994302;28;20497;-36
2023/11/04 05:30:06;;;;;;;17.63;5.65;;;;;;;;;;5012044;28;20053;-37
2023/11/04 05:32:33;;;;;;;13.13;5.70;;;;;;;;;;5011993;28;20108;-37
2023/11/04 05:35:00;;;;;;;10.93;4.72;;;;;;;;;;5011986;28;20033;-36
2023/11/04 05:37:27;;;;;;;13.77;4.93;;;;;;;;;;5011991;28;20519;-36
2023/11/04 05:39:54;;;;;;;12.98;5.03;;;;;;;;;;5011955;28;20033;-36
2023/11/04 05:42:23;;;;;;;15.30;5.03;;;;;;;;;;5012013;28;20026;-36
2023/11/04 05:44:53;;;;;;;9.85;4.60;;;;;;;;;;5011820;28;20037;-36
2023/11/04 05:47:20;;;;;;;11.90;4.82;;;;;;;;;;5011854;28;20029;-36
2023/11/04 05:49:47;;;;;;;10.20;4.70;;;;;;;;;;5011727;28;20061;-36
2023/11/04 05:52:14;;;;;;;13.07;4.88;;;;;;;;;;5011818;28;20022;-38
2023/11/04 05:54:41;;;;;;;12.30;4.45;;;;;;;;;;5011783;28;20076;-36
2023/11/04 05:57:09;;;;;;;14.10;4.57;;;;;;;;;;5011765;28;20014;-37
2023/11/04 05:59:37;;;;;;;10.95;4.28;;;;;;;;;;5011623;28;20026;-36
2023/11/04 06:02:04;;;;;;;11.93;4.60;;;;;;;;;;5010600;28;20400;-37
2023/11/04 06:04:30;;;;;;;12.52;4.75;;;;;;;;;;5011718;28;20081;-36
2023/11/04 06:06:57;;;;;;;12.02;4.32;;;;;;;;;;5011764;28;20034;-36
2023/11/04 06:09:25;;;;;;;9.82;4.50;;;;;;;;;;5011700;28;20025;-37
2023/11/04 06:11:52;;;;;;;12.00;4.30;;;;;;;;;;5011706;28;20030;-36
2023/11/04 06:14:19;;;;;;;12.80;4.70;;;;;;;;;;5011609;28;20025;-37
2023/11/04 06:16:46;;;;;;;12.73;4.80;;;;;;;;;;5014232;28;20041;-36
2023/11/04 06:19:13;;;;;;;10.35;4.90;;;;;;;;;;5015586;28;20030;-37
2023/11/04 06:21:40;;;;;;;11.55;4.63;;;;;;;;;;5015223;28;20030;-36
2023/11/04 06:24:07;;;;;;;9.02;4.25;;;;;;;;;;5015507;28;20553;-36
2023/11/04 06:26:34;;;;;;;9.73;4.20;;;;;;;;;;5015464;28;20028;-36
2023/11/04 06:29:01;;;;;;;6.95;3.60;;;;;;;;;;5015132;28;20053;-36
2023/11/04 06:31:28;;;;;;;9.93;4.10;;;;;;;;;;5015393;28;20096;-37
2023/11/04 06:33:55;;;;;;;8.98;3.72;;;;;;;;;;5015382;28;20464;-36
2023/11/04 06:36:22;;;;;;;7.78;4.03;;;;;;;;;;5015053;28;20069;-37
2023/11/04 06:38:49;;;;;;;12.02;4.47;;;;;;;;;;5015127;28;20026;-36
2023/11/04 06:41:17;;;;;;;10.35;4.38;;;;;;;;;;5015411;28;20029;-36
2023/11/04 06:43:44;;;;;;;7.32;3.85;;;;;;;;;;5015001;28;20034;-36
2023/11/04 06:46:11;;;;;;;8.45;3.60;;;;;;;;;;5015143;28;20026;-37
2023/11/04 06:48:38;;;;;;;6.63;3.60;;;;;;;;;;5014795;28;20160;-36
2023/11/04 06:51:06;;;;;;;11.07;4.18;;;;;;;;;;5014989;28;20087;-37
2023/11/04 06:53:33;;;;;;;9.00;3.72;;;;;;;;;;4997316;28;20108;-36
2023/11/04 06:56:02;;;;;;;11.05;4.30;;;;;;;;;;5014836;28;20034;-36
2023/11/04 06:58:29;;;;;;;8.30;3.60;;;;;;;;;;5014711;28;20030;-36
2023/11/04 07:01:01;;;;;;;7.88;3.30;;;;;;;;;;5014866;28;20499;-36
2023/11/04 07:03:31;;;;;;;8.33;3.70;;;;;;;;;;5014717;28;20046;-36
2023/11/04 07:05:58;;;;;;;6.30;3.17;;;;;;;;;;5014765;28;20261;-37
2023/11/04 07:08:25;;;;;;;9.27;3.28;;;;;;;;;;5014631;28;20022;-36
2023/11/04 07:10:52;;;;;;;7.70;3.70;;;;;;;;;;5014655;28;20033;-36
2023/11/04 07:13:19;;;;;;;6.70;3.40;;;;;;;;;;5014559;28;20105;-36
2023/11/04 07:15:46;;;;;;;8.00;3.17;;;;;;;;;;5014546;28;20034;-36
2023/11/04 07:18:14;;;;;;;8.48;3.33;;;;;;;;;;5014475;28;20058;-36
2023/11/04 07:20:41;;;;;;;7.03;3.63;;;;;;;;;;4996976;28;20029;-36
2023/11/04 07:23:10;;;;;;;4.78;2.70;;;;;;;;;;5014445;28;20101;-36
2023/11/04 07:25:38;;;;;;;7.90;3.40;;;;;;;;;;5014277;28;20041;-36
2023/11/04 07:28:05;;;;;;;7.75;3.50;;;;;;;;;;5013617;28;20050;-36
2023/11/04 07:30:33;;;;;;;10.65;3.08;;;;;;;;;;5014299;28;20026;-36
2023/11/04 07:33:00;;;;;;;6.22;2.78;;;;;;;;;;5014103;28;20092;-37
2023/11/04 07:35:27;;;;;;;7.90;3.13;;;;;;;;;;5014174;28;20088;-36
2023/11/04 07:37:56;;;;;;;5.20;2.45;;;;;;;;;;5014091;28;20040;-36
2023/11/04 07:40:26;;;;;;;6.97;2.80;;;;;;;;;;5013978;28;20030;-36
2023/11/04 07:42:53;;;;;;;5.63;2.70;;;;;;;;;;5014071;28;20026;-36
2023/11/04 07:45:20;;;;;;;3.78;2.13;;;;;;;;;;5013970;28;20034;-36
2023/11/04 07:47:47;;;;;;;6.30;3.03;;;;;;;;;;5013925;28;20036;-37
2023/11/04 07:50:14;;;;;;;5.38;2.88;;;;;;;;;;5013914;28;20030;-37
2023/11/04 07:52:41;;;;;;;6.47;2.55;;;;;;;;;;5013814;28;20026;-37
2023/11/04 07:55:11;;;;;;;6.72;2.90;;;;;;;;;;5013620;28;20404;-36
2023/11/04 07:57:38;;;;;;;5.22;2.50;;;;;;;;;;5013721;28;20094;-36
2023/11/04 08:00:13;;;;;;;6.47;3.00;;;;;;;;;;5013666;28;20026;-36
2023/11/04 08:02:41;;;;;;;5.50;2.55;;;;;;;;;;5013670;28;20046;-36
2023/11/04 08:05:11;;;;;;;4.88;2.60;;;;;;;;;;5013700;28;20038;-36
2023/11/04 08:07:38;;;;;;;4.32;2.22;;;;;;;;;;5013591;28;20025;-36
2023/11/04 08:10:06;;;;;;;5.72;2.40;;;;;;;;;;5013526;28;20030;-37
2023/11/04 08:12:34;;;;;;;5.03;2.40;;;;;;;;;;5013344;28;20053;-36
2023/11/04 08:15:01;;;;;;;5.38;2.58;;;;;;;;;;5013362;28;20030;-37
2023/11/04 08:17:28;;;;;;;5.57;2.38;;;;;;;;;;5013411;28;20526;-37
2023/11/04 08:19:55;;;;;;;3.88;2.13;;;;;;;;;;5013364;28;20026;-37
2023/11/04 08:22:22;;;;;;;5.75;2.28;;;;;;;;;;5013300;28;20037;-37
2023/11/04 08:24:49;;;;;;;6.53;3.17;;;;;;;;;;5013119;28;20033;-36
2023/11/04 08:27:16;;;;;;;4.60;2.33;;;;;;;;;;5013003;28;20061;-37
2023/11/04 08:29:43;;;;;;;5.28;2.15;;;;;;;;;;5013053;28;20025;-37
2023/11/04 08:32:10;;;;;;;6.32;2.40;;;;;;;;;;5013117;28;20392;-36
2023/11/04 08:34:38;;;;;;;4.68;2.10;;;;;;;;;;5012388;28;20460;-37
2023/11/04 08:37:06;;;;;;;4.15;2.30;;;;;;;;;;5012309;28;20117;-36
2023/11/04 08:39:34;;;;;;;5.80;2.40;;;;;;;;;;5011984;28;20053;-37
2023/11/04 08:42:02;;;;;;;25.25;3.83;;;;;;;;;;5012889;28;20026;-37
2023/11/04 08:44:29;;;;;;;34.90;5.47;;;;;;;;;;5012179;28;20052;-37
2023/11/04 08:46:56;;;;;;;22.10;4.43;;;;;;;;;;5012483;28;20033;-36
2023/11/04 08:49:23;;;;;;;28.17;5.20;;;;;;;;;;5012746;28;20100;-37
2023/11/04 08:51:51;;;;;;;25.30;5.15;;;;;;;;;;5012902;28;20037;-37
2023/11/04 08:54:20;;;;;;;21.60;4.70;;;;;;;;;;5012650;28;20116;-37
2023/11/04 08:56:48;;;;;;;28.67;4.63;;;;;;;;;;5012496;28;20051;-37
2023/11/04 08:59:15;;;;;;;27.42;4.68;;;;;;;;;;5012384;28;20116;-37
2023/11/04 09:01:42;;;;;;;18.45;4.53;;;;;;;;;;5012686;28;20037;-37
2023/11/04 09:04:11;;;;;;;20.85;4.43;;;;;;;;;;5012355;28;20041;-37
2023/11/04 09:06:38;;;;;;;27.45;4.75;;;;;;;;;;5012417;28;20381;-37
2023/11/04 09:09:07;;;;;;;18.70;4.10;;;;;;;;;;5012464;28;20033;-37
2023/11/04 09:11:35;;;;;;;24.10;4.72;;;;;;;;;;5012285;28;20084;-37
2023/11/04 09:14:04;;;;;;;15.90;4.05;;;;;;;;;;5012474;28;20044;-37
2023/11/04 09:16:34;;;;;;;22.35;4.57;;;;;;;;;;5012255;28;20129;-37
2023/11/04 09:19:01;;;;;;;17.02;4.18;;;;;;;;;;5012249;28;20028;-37
2023/11/04 09:21:28;;;;;;;15.02;4.05;;;;;;;;;;5012308;28;20040;-37
2023/11/04 09:23:55;;;;;;;15.05;3.55;;;;;;;;;;5012193;28;20080;-37
2023/11/04 09:26:22;;;;;;;15.32;3.42;;;;;;;;;;5012224;28;20036;-37
2023/11/04 09:28:49;;;;;;;13.02;3.67;;;;;;;;;;5011888;28;20140;-37
2023/11/04 09:31:16;;;;;;;17.40;4.15;;;;;;;;;;5011972;28;20065;-37
2023/11/04 09:33:43;;;;;;;12.95;3.55;;;;;;;;;;4994392;28;20428;-36
2023/11/04 09:36:10;;;;;;;12.98;3.58;;;;;;;;;;5012017;28;20500;-37
2023/11/04 09:38:37;;;;;;;13.65;3.78;;;;;;;;;;5011976;28;20542;-37
2023/11/04 09:41:05;;;;;;;14.02;3.92;;;;;;;;;;5012115;28;20076;-37
2023/11/04 09:43:33;;;;;;;15.25;3.50;;;;;;;;;;5012097;28;20430;-37
2023/11/04 09:46:01;;;;;;;10.60;3.17;;;;;;;;;;5011912;28;20048;-37
2023/11/04 09:48:30;;;;;;;12.80;3.50;;;;;;;;;;5011863;28;20056;-37
2023/11/04 09:51:00;;;;;;;13.75;3.33;;;;;;;;;;5011951;28;20097;-38
2023/11/04 09:53:28;;;;;;;13.38;3.55;;;;;;;;;;5011781;28;20105;-36
2023/11/04 09:55:55;;;;;;;13.35;3.70;;;;;;;;;;5011794;28;20038;-37
2023/11/04 09:58:23;;;;;;;14.45;4.13;;;;;;;;;;5011753;28;20029;-36
2023/11/04 10:00:51;;;;;;;9.77;2.92;;;;;;;;;;5011822;28;20026;-37
2023/11/04 10:03:19;;;;;;;8.20;2.95;;;;;;;;;;5011649;28;20499;-37
2023/11/04 10:05:47;;;;;;;12.27;3.75;;;;;;;;;;5011601;28;20026;-36
2023/11/04 10:08:14;;;;;;;9.40;2.65;;;;;;;;;;5011477;28;20397;-37
2023/11/04 10:10:41;;;;;;;8.48;2.90;;;;;;;;;;5011745;28;20611;-37
2023/11/04 10:13:08;;;;;;;14.90;3.33;;;;;;;;;;5011666;28;20041;-37
2023/11/04 10:15:35;;;;;;;10.88;3.13;;;;;;;;;;5011548;28;20038;-37
2023/11/04 10:18:02;;;;;;;11.32;2.90;;;;;;;;;;5011591;28;20030;-37
2023/11/04 10:20:29;;;;;;;10.20;3.55;;;;;;;;;;5011571;28;20033;-36
2023/11/04 10:22:56;;;;;;;10.77;3.05;;;;;;;;;;5011629;28;20026;-37
2023/11/04 10:25:24;;;;;;;10.73;3.05;;;;;;;;;;5011601;28;20034;-37
2023/11/04 10:27:51;;;;;;;9.98;2.97;;;;;;;;;;5011238;28;20050;-37
2023/11/04 10:30:17;;;;;;;5.45;2.40;;;;;;;;;;5011548;28;20036;-37
2023/11/04 10:32:54;;;;;;;10.45;2.60;;;;;;;;;;5011524;28;20038;-37
2023/11/04 10:35:22;;;;;;;8.85;2.95;;;;;;;;;;5011426;28;20091;-37
2023/11/04 10:37:52;;;;;;;9.10;3.15;;;;;;;;;;5011331;28;20432;-37
2023/11/04 10:40:20;;;;;;;7.30;2.67;;;;;;;;;;5004975;28;20042;-37
2023/11/04 10:43:07;;;;;;;8.93;2.80;;;;;;;;;;5011294;28;20034;-37
2023/11/04 10:45:55;;;;;;;7.35;2.78;;;;;;;;;;5011391;28;20048;-37
2023/11/04 10:48:51;;;;;;;8.30;2.88;;;;;;;;;;5011125;28;20464;-37
2023/11/04 10:51:20;;;;;;;9.18;2.60;;;;;;;;;;4995235;28;20488;-37
2023/11/04 10:54:06;;;;;;;7.18;2.53;;;;;;;;;;5011245;28;20022;-37
2023/11/04 10:56:42;;;;;;;9.15;2.90;;;;;;;;;;5010994;28;20547;-37
2023/11/04 10:59:12;;;;;;;9.35;2.90;;;;;;;;;;5011182;28;20026;-37
2023/11/04 11:01:41;;;;;;;6.57;2.58;;;;;;;;;;5012091;28;20856;-37
2023/11/04 11:04:09;;;;;;;10.23;2.60;;;;;;;;;;5014682;28;20040;-37
2023/11/04 11:06:37;;;;;;;7.63;2.78;;;;;;;;;;5014845;28;20036;-37
2023/11/04 11:09:05;;;;;;;6.60;2.63;;;;;;;;;;5014611;28;20029;-37
2023/11/04 11:11:50;;;;;;;6.75;2.45;;;;;;;;;;5014738;28;20109;-37
2023/11/04 11:14:17;;;;;;;7.53;2.65;;;;;;;;;;4996859;28;20374;-37
2023/11/04 11:16:45;;;;;;;7.68;2.75;;;;;;;;;;5014409;28;20440;-37
2023/11/04 11:19:12;;;;;;;9.80;2.90;;;;;;;;;;5014257;28;20034;-37
2023/11/04 11:21:49;;;;;;;4.28;2.40;;;;;;;;;;5014486;28;20029;-37
2023/11/04 11:24:20;;;;;;;6.28;2.95;;;;;;;;;;5014372;28;20057;-38
2023/11/04 11:26:50;;;;;;;8.52;2.90;;;;;;;;;;5014323;28;20048;-37
2023/11/04 11:29:22;;;;;;;7.40;2.80;;;;;;;;;;5013962;28;20080;-37
2023/11/04 11:31:53;;;;;;;4.78;2.42;;;;;;;;;;5014173;28;20091;-37
2023/11/04 11:34:20;;;;;;;12.10;3.05;;;;;;;;;;5014197;28;20030;-37
2023/11/04 11:36:51;;;;;;;5.78;2.33;;;;;;;;;;5014223;28;20440;-37
2023/11/04 11:39:19;;;;;;;8.48;3.40;;;;;;;;;;5013994;28;20515;-37
2023/11/04 11:41:48;;;;;;;6.20;3.00;;;;;;;;;;5013968;28;20109;-37
2023/11/04 11:44:15;;;;;;;6.40;2.72;;;;;;;;;;5013932;28;20034;-36
2023/11/04 11:46:43;;;;;;;5.82;2.78;;;;;;;;;;5014015;28;20507;-37
2023/11/04 11:49:10;;;;;;;7.43;2.72;;;;;;;;;;5013716;28;20041;-37
2023/11/04 11:51:37;;;;;;;7.22;2.67;;;;;;;;;;5013922;28;20413;-37
2023/11/04 11:54:05;;;;;;;9.15;2.95;;;;;;;;;;4996186;28;20539;-37
2023/11/04 11:56:32;;;;;;;7.15;2.67;;;;;;;;;;5013725;28;20041;-37
2023/11/04 11:59:05;;;;;;;8.57;2.80;;;;;;;;;;5013739;28;20104;-37
2023/11/04 12:01:33;;;;;;;6.25;2.60;;;;;;;;;;5013580;28;20038;-37
2023/11/04 12:04:01;;;;;;;7.93;2.97;;;;;;;;;;5013632;28;20030;-38
2023/11/04 12:06:29;;;;;;;6.28;2.63;;;;;;;;;;5013618;28;20030;-37
2023/11/04 12:08:56;;;;;;;7.70;2.80;;;;;;;;;;5013541;28;20029;-37
2023/11/04 12:11:24;;;;;;;7.70;3.03;;;;;;;;;;5013559;28;20101;-37
2023/11/04 12:13:51;;;;;;;10.10;2.72;;;;;;;;;;5012473;28;20396;-37
2023/11/04 12:16:18;;;;;;;6.97;2.65;;;;;;;;;;5013393;28;20108;-37
2023/11/04 12:18:49;;;;;;;7.45;2.30;;;;;;;;;;5013190;28;20034;-37
2023/11/04 12:21:17;;;;;;;8.85;2.78;;;;;;;;;;5013548;28;20030;-37
2023/11/04 12:23:44;;;;;;;6.05;2.47;;;;;;;;;;5013404;28;20105;-37
2023/11/04 12:26:12;;;;;;;5.80;2.42;;;;;;;;;;5013200;28;20111;-37
2023/11/04 12:28:43;;;;;;;5.05;2.20;;;;;;;;;;5012773;28;20077;-37
2023/11/04 12:31:12;;;;;;;4.95;2.45;;;;;;;;;;5013003;28;20447;-37
2023/11/04 12:33:44;;;;;;;5.28;2.28;;;;;;;;;;5012713;28;20145;-37
2023/11/04 12:36:14;;;;;;;4.07;1.98;;;;;;;;;;5013169;28;20476;-37
2023/11/04 12:38:41;;;;;;;7.20;2.33;;;;;;;;;;5012965;28;20080;-37
2023/11/04 12:41:11;;;;;;;8.88;2.58;;;;;;;;;;5012944;28;20036;-37
2023/11/04 12:43:38;;;;;;;6.63;2.25;;;;;;;;;;5012983;28;20080;-37
2023/11/04 12:46:09;;;;;;;6.00;2.15;;;;;;;;;;5012695;28;20387;-37
2023/11/04 12:48:36;;;;;;;13.88;2.63;;;;;;;;;;5012645;28;20038;-37
2023/11/04 12:51:04;;;;;;;13.38;2.50;;;;;;;;;;5012670;28;20381;-37
2023/11/04 12:53:33;;;;;;;8.40;2.00;;;;;;;;;;5012634;28;20034;-37
2023/11/04 12:56:01;;;;;;;5.68;2.25;;;;;;;;;;5012524;28;20513;-37
2023/11/04 12:58:31;;;;;;;8.77;2.20;;;;;;;;;;5012574;28;20041;-36
2023/11/04 13:00:59;;;;;;;4.47;1.92;;;;;;;;;;5012568;28;20450;-36
2023/11/04 13:03:27;;;;;;;8.50;2.30;;;;;;;;;;5012281;28;20121;-37
2023/11/04 13:05:54;;;;;;;5.80;2.15;;;;;;;;;;5012690;28;20479;-36
2023/11/04 13:08:21;;;;;;;10.60;2.17;;;;;;;;;;5012313;28;20084;-36
2023/11/04 13:10:47;;;;;;;7.65;2.15;;;;;;;;;;5012546;28;20752;-36
2023/11/04 13:13:15;;;;;;;7.63;2.17;;;;;;;;;;5012472;28;20469;-36
2023/11/04 13:15:42;;;;;;;6.05;1.92;;;;;;;;;;5011785;28;20076;-36
2023/11/04 13:18:09;;;;;;;8.40;1.88;;;;;;;;;;5011797;28;20033;-36
2023/11/04 13:20:36;;;;;;;6.25;2.17;;;;;;;;;;5011651;28;20025;-36
2023/11/04 13:23:03;;;;;;;13.75;1.90;;;;;;;;;;5010042;28;20546;-36
2023/11/04 13:25:30;;;;;;;6.30;1.80;;;;;;;;;;5010689;28;20042;-36
2023/11/04 13:27:57;;;;;;;9.55;2.45;;;;;;;;;;5010861;28;20396;-36
2023/11/04 13:30:25;;;;;;;10.45;2.13;;;;;;;;;;5011479;28;20033;-35
2023/11/04 13:32:52;;;;;;;9.82;2.45;;;;;;;;;;5011066;28;20038;-36
2023/11/04 13:35:20;;;;;;;9.43;2.13;;;;;;;;;;5011209;28;20481;-36
2023/11/04 13:37:47;;;;;;;8.48;2.05;;;;;;;;;;5008329;28;20551;-36
2023/11/04 13:40:14;;;;;;;7.90;1.95;;;;;;;;;;5011347;28;20033;-36
2023/11/04 13:42:41;;;;;;;9.25;2.28;;;;;;;;;;5010947;28;20029;-36
2023/11/04 13:45:09;;;;;;;14.95;2.75;;;;;;;;;;5011205;28;20042;-35
2023/11/04 13:47:36;;;;;;;11.73;2.60;;;;;;;;;;5008188;28;20127;-36
2023/11/04 13:50:06;;;;;;;11.45;2.50;;;;;;;;;;5011177;28;20037;-36
2023/11/04 13:52:33;;;;;;;15.48;3.13;;;;;;;;;;5010162;28;20485;-36
2023/11/04 13:55:01;;;;;;;27.02;3.58;;;;;;;;;;5010848;28;20033;-36
2023/11/04 13:57:28;;;;;;;20.30;3.28;;;;;;;;;;5011279;28;20025;-36
2023/11/04 13:59:55;;;;;;;15.70;3.30;;;;;;;;;;5011076;28;20034;-36
2023/11/04 14:02:26;;;;;;;10.05;2.17;;;;;;;;;;5011344;28;20041;-36
2023/11/04 14:04:54;;;;;;;11.53;2.40;;;;;;;;;;5010932;28;20041;-36
2023/11/04 14:07:21;;;;;;;12.27;2.80;;;;;;;;;;5010921;28;20041;-36
2023/11/04 14:09:48;;;;;;;13.60;2.88;;;;;;;;;;5010850;28;20038;-36
2023/11/04 14:12:15;;;;;;;23.33;2.50;;;;;;;;;;5010763;28;20026;-36
2023/11/04 14:14:42;;;;;;;13.57;2.65;;;;;;;;;;5010548;28;20030;-36
2023/11/04 14:17:09;;;;;;;12.07;2.45;;;;;;;;;;5010486;28;20476;-36
2023/11/04 14:19:37;;;;;;;9.32;2.28;;;;;;;;;;5011056;28;20037;-36
2023/11/04 14:22:04;;;;;;;12.32;2.63;;;;;;;;;;5010670;28;20034;-36
2023/11/04 14:24:33;;;;;;;9.68;2.90;;;;;;;;;;5010531;28;20427;-37
2023/11/04 14:27:00;;;;;;;11.68;2.08;;;;;;;;;;4999289;28;20451;-36
2023/11/04 14:29:27;;;;;;;15.35;2.78;;;;;;;;;;5010733;28;20088;-36
2023/11/04 14:31:54;;;;;;;10.88;2.00;;;;;;;;;;5010914;28;20492;-36
2023/11/04 14:34:21;;;;;;;5.70;1.80;;;;;;;;;;5010655;28;20037;-36
2023/11/04 14:36:48;;;;;;;10.10;2.10;;;;;;;;;;5011776;28;20459;-35